Time;durP1;ratioP1;P1;durP2;ratioP2;P2;SDS_P1;SDS_P2;PMS_P1;PMS_P2;Temp;Humidity;BMP_temperature;BMP_pressure;BME280_temperature;BME280_humidity;BME280_pressure;Samples;Min_cycle;Max_cycle;Signal;HPM_P1;HPM_P2
2022/10/11 00:01:02;;;;;;;15.43;3.08;;;7.40;99.90;;;;;;4937051;29;20038;-77
2022/10/11 00:03:28;;;;;;;15.68;3.13;;;7.40;99.90;;;;;;4929070;29;20047;-77
2022/10/11 00:05:53;;;;;;;20.17;3.38;;;7.30;99.90;;;;;;4929459;28;20437;-77
2022/10/11 00:08:19;;;;;;;16.33;3.08;;;7.30;99.90;;;;;;4931153;28;20055;-76
2022/10/11 00:10:55;;;;;;;19.77;2.97;;;7.30;99.90;;;;;;4939930;29;20043;-76
2022/10/11 00:13:20;;;;;;;19.08;2.80;;;7.30;99.90;;;;;;4911765;28;20047;-77
2022/10/11 00:15:46;;;;;;;18.08;2.90;;;7.30;99.90;;;;;;4932912;29;20102;-77
2022/10/11 00:18:11;;;;;;;15.02;2.45;;;7.30;99.90;;;;;;4932544;28;20095;-75
2022/10/11 00:20:37;;;;;;;24.92;3.25;;;7.30;99.90;;;;;;4935697;29;20065;-75
2022/10/11 00:23:03;;;;;;;15.07;2.95;;;7.30;99.90;;;;;;4916168;29;20101;-77
2022/10/11 00:25:28;;;;;;;21.60;2.88;;;7.30;99.90;;;;;;4923195;29;20047;-77
2022/10/11 00:27:54;;;;;;;16.17;3.55;;;7.30;99.90;;;;;;4924928;28;20083;-77
2022/10/11 00:30:19;;;;;;;14.73;3.08;;;7.30;99.90;;;;;;4933966;29;20054;-77
2022/10/11 00:32:45;;;;;;;18.58;3.10;;;7.30;99.90;;;;;;4932673;28;20043;-77
2022/10/11 00:35:10;;;;;;;20.67;3.40;;;7.30;99.90;;;;;;4935046;29;20055;-77
2022/10/11 00:37:38;;;;;;;26.42;3.53;;;7.30;99.90;;;;;;4921813;28;20054;-76
2022/10/11 00:40:11;;;;;;;18.88;3.30;;;7.30;99.90;;;;;;4918944;28;20049;-77
2022/10/11 00:42:37;;;;;;;30.42;3.65;;;7.30;99.90;;;;;;4931611;29;20114;-77
2022/10/11 00:45:25;;;;;;;12.15;2.50;;;7.30;99.90;;;;;;4928187;28;20125;-77
2022/10/11 00:47:55;;;;;;;23.42;3.47;;;7.30;99.90;;;;;;4929615;28;20043;-77
2022/10/11 00:50:23;;;;;;;15.85;2.70;;;7.30;99.90;;;;;;4924844;29;20063;-77
2022/10/11 00:52:56;;;;;;;27.25;3.55;;;7.30;99.90;;;;;;4932640;29;20401;-77
2022/10/11 00:55:28;;;;;;;19.48;3.50;;;7.30;99.90;;;;;;4928599;29;20044;-77
2022/10/11 00:57:55;;;;;;;21.73;2.90;;;7.30;99.90;;;;;;4931838;28;20402;-77
2022/10/11 01:00:21;;;;;;;15.98;2.85;;;7.30;99.90;;;;;;4933939;29;20321;-77
2022/10/11 01:02:47;;;;;;;17.98;2.72;;;7.30;99.90;;;;;;4935693;28;20189;-75
2022/10/11 01:05:16;;;;;;;15.43;2.97;;;7.30;99.90;;;;;;4932742;29;20220;-76
2022/10/11 01:07:43;;;;;;;11.95;2.17;;;7.20;99.90;;;;;;4927834;28;20051;-76
2022/10/11 01:10:09;;;;;;;15.55;2.78;;;7.20;99.90;;;;;;4930989;28;20043;-75
2022/10/11 01:12:36;;;;;;;16.63;3.10;;;7.20;99.90;;;;;;4933838;29;20082;-77
2022/10/11 01:15:15;;;;;;;18.45;2.78;;;7.20;99.90;;;;;;4932847;28;20062;-77
2022/10/11 01:17:59;;;;;;;12.75;2.30;;;7.10;99.90;;;;;;4933940;29;20047;-77
2022/10/11 01:20:42;;;;;;;13.93;2.80;;;7.10;99.90;;;;;;4945176;28;20043;-77
2022/10/11 01:23:31;;;;;;;14.38;3.30;;;7.10;99.90;;;;;;4930503;28;20204;-77
2022/10/11 01:26:11;;;;;;;13.70;3.08;;;7.00;99.90;;;;;;4893904;28;20519;-77
2022/10/11 01:28:43;;;;;;;11.63;3.10;;;7.00;99.90;;;;;;4919456;29;20127;-77
2022/10/11 01:31:27;;;;;;;12.27;2.92;;;7.00;99.90;;;;;;4939865;28;20058;-77
2022/10/11 01:34:03;;;;;;;20.42;2.72;;;7.00;99.90;;;;;;4929259;29;20106;-78
2022/10/11 01:36:37;;;;;;;14.75;3.08;;;7.00;99.90;;;;;;4930449;29;20673;-77
2022/10/11 01:39:19;;;;;;;12.23;2.40;;;6.90;99.90;;;;;;4938070;28;20034;-77
2022/10/11 01:41:49;;;;;;;13.02;2.53;;;7.00;99.90;;;;;;4935441;28;20046;-77
2022/10/11 01:44:15;;;;;;;11.25;2.58;;;7.00;99.90;;;;;;4941421;28;20043;-77
2022/10/11 01:46:42;;;;;;;17.10;3.25;;;7.00;99.90;;;;;;4932467;28;20433;-77
2022/10/11 01:49:08;;;;;;;17.40;2.70;;;6.90;99.90;;;;;;4943023;28;20043;-75
2022/10/11 01:51:39;;;;;;;16.20;2.92;;;7.00;99.90;;;;;;4934794;29;20050;-77
2022/10/11 01:54:19;;;;;;;9.82;2.40;;;6.90;99.90;;;;;;4922503;29;20509;-77
2022/10/11 01:56:56;;;;;;;17.35;3.00;;;6.90;99.90;;;;;;4942223;28;20047;-76
2022/10/11 01:59:40;;;;;;;10.30;2.50;;;6.90;99.90;;;;;;4937132;28;20395;-78
2022/10/11 02:02:16;;;;;;;9.52;2.45;;;6.90;99.90;;;;;;4937038;29;20043;-77
2022/10/11 02:04:55;;;;;;;13.82;2.47;;;6.90;99.90;;;;;;4946066;28;20039;-77
2022/10/11 02:07:29;;;;;;;14.85;2.67;;;6.90;99.90;;;;;;4939401;28;20046;-75
2022/10/11 02:10:31;;;;;;;19.63;3.05;;;6.90;99.90;;;;;;4925237;28;20417;-76
2022/10/11 02:13:30;;;;;;;16.55;3.20;;;6.90;99.90;;;;;;4951747;28;20055;-77
2022/10/11 02:15:59;;;;;;;10.55;2.55;;;6.80;99.90;;;;;;4954197;28;20047;-77
2022/10/11 02:18:31;;;;;;;17.75;3.25;;;6.80;99.90;;;;;;4945383;29;20457;-76
2022/10/11 02:21:00;;;;;;;18.95;3.00;;;6.90;99.90;;;;;;4945599;28;20051;-77
2022/10/11 02:23:31;;;;;;;19.70;3.33;;;6.90;99.90;;;;;;4933591;29;20358;-77
2022/10/11 02:25:58;;;;;;;13.05;2.80;;;6.90;99.90;;;;;;4934379;28;20514;-77
2022/10/11 02:28:30;;;;;;;14.23;2.72;;;6.90;99.90;;;;;;4934252;29;20069;-77
2022/10/11 02:30:58;;;;;;;15.10;2.63;;;6.90;99.90;;;;;;4936360;28;20054;-75
2022/10/11 02:33:40;;;;;;;13.82;2.70;;;6.90;99.90;;;;;;4949925;28;20502;-77
2022/10/11 02:36:14;;;;;;;15.50;3.08;;;6.90;99.90;;;;;;4932267;29;20051;-77
2022/10/11 02:38:47;;;;;;;14.15;2.70;;;6.90;99.90;;;;;;4939256;28;20603;-77
2022/10/11 02:41:26;;;;;;;10.90;2.38;;;6.90;99.90;;;;;;4945890;28;20057;-77
2022/10/11 02:44:16;;;;;;;12.88;2.50;;;6.90;99.90;;;;;;4933737;29;22483;-77
2022/10/11 02:46:44;;;;;;;12.77;2.40;;;6.90;99.90;;;;;;4940675;28;20129;-77
2022/10/11 02:49:11;;;;;;;14.82;2.47;;;6.90;99.90;;;;;;4947340;29;20045;-77
2022/10/11 02:51:37;;;;;;;13.68;2.78;;;6.80;99.90;;;;;;4930284;29;20099;-77
2022/10/11 02:54:03;;;;;;;13.68;2.83;;;6.80;99.90;;;;;;4936053;29;20051;-77
2022/10/11 02:56:29;;;;;;;14.45;2.30;;;6.80;99.90;;;;;;4934596;29;20047;-77
2022/10/11 02:58:54;;;;;;;10.70;2.05;;;6.70;99.90;;;;;;4942630;28;20050;-77
2022/10/11 03:01:20;;;;;;;13.40;2.80;;;6.70;99.90;;;;;;4931584;28;20039;-76
2022/10/11 03:03:46;;;;;;;8.77;1.90;;;6.60;99.90;;;;;;4930238;28;20143;-77
2022/10/11 03:06:11;;;;;;;15.45;2.65;;;6.60;99.90;;;;;;4936432;28;20407;-77
2022/10/11 03:08:37;;;;;;;12.00;2.80;;;6.50;99.90;;;;;;4926137;28;20501;-75
2022/10/11 03:11:02;;;;;;;12.75;2.72;;;6.50;99.90;;;;;;4917867;29;20082;-76
2022/10/11 03:13:28;;;;;;;18.92;3.22;;;6.50;99.90;;;;;;4920204;29;20062;-77
2022/10/11 03:15:54;;;;;;;14.23;2.38;;;6.50;99.90;;;;;;4922808;29;20046;-77
2022/10/11 03:18:20;;;;;;;10.88;2.47;;;6.50;99.90;;;;;;4928172;29;20093;-78
2022/10/11 03:20:46;;;;;;;11.57;2.60;;;6.50;99.90;;;;;;4921819;28;20043;-77
2022/10/11 03:23:12;;;;;;;9.60;2.50;;;6.40;99.90;;;;;;4933702;29;20044;-77
2022/10/11 03:25:38;;;;;;;10.27;2.25;;;6.40;99.90;;;;;;4917750;29;20584;-77
2022/10/11 03:28:04;;;;;;;85.93;3.70;;;6.40;99.90;;;;;;4929585;29;20059;-77
2022/10/11 03:30:30;;;;;;;152.25;5.07;;;6.40;99.90;;;;;;4935456;29;20053;-77
2022/10/11 03:32:55;;;;;;;52.38;2.80;;;6.20;99.90;;;;;;4938398;28;20047;-76
2022/10/11 03:35:21;;;;;;;7.38;1.70;;;6.10;99.90;;;;;;4913441;29;20051;-77
2022/10/11 03:37:47;;;;;;;8.93;1.75;;;6.00;99.90;;;;;;4930020;29;20039;-77
2022/10/11 03:40:13;;;;;;;5.45;1.80;;;6.00;99.90;;;;;;4924051;28;20047;-77
2022/10/11 03:42:39;;;;;;;15.30;2.53;;;6.00;99.90;;;;;;4937498;29;20442;-77
2022/10/11 03:45:07;;;;;;;6.95;2.00;;;6.00;99.90;;;;;;4926052;29;20048;-75
2022/10/11 03:47:34;;;;;;;74.05;3.10;;;6.10;99.90;;;;;;4936395;28;20070;-77
2022/10/11 03:50:00;;;;;;;16.48;2.10;;;6.00;99.90;;;;;;4930962;28;20043;-77
2022/10/11 03:52:25;;;;;;;12.38;2.42;;;6.00;99.90;;;;;;4924517;29;20055;-76
2022/10/11 03:54:51;;;;;;;9.45;2.10;;;5.90;99.90;;;;;;4940371;29;20047;-77
2022/10/11 03:57:17;;;;;;;11.00;2.45;;;5.90;99.90;;;;;;4935971;29;20461;-77
2022/10/11 03:59:43;;;;;;;7.35;2.00;;;5.90;99.90;;;;;;4935734;28;20051;-77
2022/10/11 04:02:08;;;;;;;26.95;2.20;;;6.00;99.90;;;;;;4931861;29;20066;-77
2022/10/11 04:04:34;;;;;;;74.47;3.42;;;6.00;99.90;;;;;;4924466;28;20043;-76
2022/10/11 04:07:00;;;;;;;28.50;2.42;;;6.00;99.90;;;;;;4921985;28;20150;-77
2022/10/11 04:09:25;;;;;;;4.30;1.90;;;6.00;99.90;;;;;;4940332;28;20054;-77
2022/10/11 04:11:51;;;;;;;4.20;1.92;;;6.00;99.90;;;;;;4936827;28;20047;-77
2022/10/11 04:14:16;;;;;;;1.77;1.60;;;5.90;99.90;;;;;;4928610;29;20387;-77
2022/10/11 04:16:42;;;;;;;8.77;2.35;;;5.90;99.90;;;;;;4924080;28;20130;-76
2022/10/11 04:19:08;;;;;;;8.95;2.90;;;5.90;99.90;;;;;;4933663;29;20051;-77
2022/10/11 04:21:33;;;;;;;10.35;2.53;;;6.00;99.90;;;;;;4926679;28;20047;-77
2022/10/11 04:23:59;;;;;;;6.07;2.28;;;6.00;99.90;;;;;;4924129;29;20143;-77
2022/10/11 04:26:24;;;;;;;9.93;2.35;;;6.00;99.90;;;;;;4930136;29;20050;-77
2022/10/11 04:28:50;;;;;;;8.50;2.58;;;6.00;99.90;;;;;;4931436;28;20051;-75
2022/10/11 04:31:16;;;;;;;7.78;2.55;;;6.00;99.90;;;;;;4921427;28;20051;-77
2022/10/11 04:33:41;;;;;;;12.80;2.35;;;6.00;99.90;;;;;;4927709;29;20442;-77
2022/10/11 04:36:07;;;;;;;12.30;2.70;;;6.00;99.90;;;;;;4916540;28;20043;-77
2022/10/11 04:38:33;;;;;;;12.77;3.30;;;6.00;99.90;;;;;;4932135;28;20043;-77
2022/10/11 04:41:10;;;;;;;5.93;2.08;;;6.00;99.90;;;;;;4942348;28;20574;-77
2022/10/11 04:43:36;;;;;;;256.42;9.48;;;6.00;99.90;;;;;;4934040;28;20039;-77
2022/10/11 04:46:02;;;;;;;77.85;4.38;;;6.00;99.90;;;;;;4931905;28;20035;-77
2022/10/11 04:48:28;;;;;;;15.52;2.10;;;6.00;99.90;;;;;;4929851;29;20055;-77
2022/10/11 04:50:54;;;;;;;35.65;2.58;;;6.00;99.90;;;;;;4936446;28;20042;-77
2022/10/11 04:53:20;;;;;;;40.53;2.47;;;6.00;99.90;;;;;;4936152;29;20077;-77
2022/10/11 04:56:06;;;;;;;6.70;1.58;;;5.90;99.90;;;;;;4931239;28;20050;-76
2022/10/11 04:58:33;;;;;;;13.82;1.55;;;5.80;99.90;;;;;;4915418;29;20137;-77
2022/10/11 05:00:59;;;;;;;8.70;1.98;;;5.80;99.90;;;;;;4929614;28;20581;-77
2022/10/11 05:03:26;;;;;;;10.45;2.33;;;5.80;99.90;;;;;;4928814;29;20106;-77
2022/10/11 05:05:52;;;;;;;6.32;2.00;;;5.70;99.90;;;;;;4923405;28;20055;-77
2022/10/11 05:08:18;;;;;;;9.63;2.55;;;5.70;99.90;;;;;;4923870;29;20051;-77
2022/10/11 05:10:57;;;;;;;6.45;2.50;;;5.70;99.90;;;;;;4925533;28;20048;-76
2022/10/11 05:13:24;;;;;;;12.98;3.42;;;5.70;99.90;;;;;;4926257;29;20047;-77
2022/10/11 05:15:50;;;;;;;15.57;3.72;;;5.80;99.90;;;;;;4927548;28;20580;-77
2022/10/11 05:18:15;;;;;;;26.23;4.38;;;5.80;99.90;;;;;;4924335;28;20039;-77
2022/10/11 05:20:41;;;;;;;9.48;3.08;;;5.80;99.90;;;;;;4932060;28;20073;-75
2022/10/11 05:23:07;;;;;;;33.00;5.47;;;5.80;99.90;;;;;;4924237;28;20052;-75
2022/10/11 05:25:33;;;;;;;16.77;4.10;;;5.90;99.90;;;;;;4929144;29;20090;-76
2022/10/11 05:27:58;;;;;;;16.63;3.92;;;5.90;99.90;;;;;;4923490;28;20723;-76
2022/10/11 05:30:24;;;;;;;16.23;4.40;;;5.90;99.90;;;;;;4930582;29;20043;-77
2022/10/11 05:32:49;;;;;;;16.10;3.72;;;6.00;99.90;;;;;;4928948;28;20761;-76
2022/10/11 05:35:15;;;;;;;12.02;3.85;;;6.00;99.90;;;;;;4915997;29;20102;-77
2022/10/11 05:37:41;;;;;;;13.10;4.00;;;6.00;99.90;;;;;;4916347;28;20074;-76
2022/10/11 05:40:07;;;;;;;13.00;3.83;;;6.00;99.90;;;;;;4927773;28;20043;-77
2022/10/11 05:42:33;;;;;;;15.73;4.38;;;6.00;99.90;;;;;;4929190;28;20050;-77
2022/10/11 05:44:58;;;;;;;19.20;3.85;;;6.10;99.90;;;;;;4945497;28;20044;-78
2022/10/11 05:47:24;;;;;;;13.50;4.15;;;6.10;99.90;;;;;;4936667;29;20047;-76
2022/10/11 05:49:49;;;;;;;17.05;4.13;;;6.10;99.90;;;;;;4935636;29;20101;-76
2022/10/11 05:52:19;;;;;;;15.27;4.10;;;6.10;99.90;;;;;;4923160;28;20448;-77
2022/10/11 05:54:44;;;;;;;14.20;4.07;;;6.10;99.90;;;;;;4951161;29;20135;-77
2022/10/11 05:57:10;;;;;;;17.27;4.40;;;6.10;99.90;;;;;;4930557;28;20577;-77
2022/10/11 05:59:36;;;;;;;17.83;4.47;;;6.10;99.90;;;;;;4933099;29;20043;-77
2022/10/11 06:02:02;;;;;;;20.25;4.47;;;6.20;99.90;;;;;;4934903;28;20490;-76
2022/10/11 06:04:27;;;;;;;16.63;4.25;;;6.20;99.90;;;;;;4941708;28;20183;-76
2022/10/11 06:06:53;;;;;;;15.05;3.65;;;6.20;99.90;;;;;;4919720;28;20634;-76
2022/10/11 06:09:19;;;;;;;19.33;3.90;;;6.30;99.90;;;;;;4928217;29;20043;-77
2022/10/11 06:11:45;;;;;;;14.57;3.50;;;6.20;99.90;;;;;;4935325;28;20529;-77
2022/10/11 06:14:10;;;;;;;8.57;3.17;;;6.20;99.90;;;;;;4941136;29;20051;-76
2022/10/11 06:16:36;;;;;;;21.05;4.00;;;6.20;99.90;;;;;;4921122;28;20424;-76
2022/10/11 06:19:03;;;;;;;11.02;3.22;;;6.20;99.90;;;;;;4916194;29;20521;-79
2022/10/11 06:21:29;;;;;;;6.10;1.60;;;6.20;99.90;;;;;;4932658;29;20063;-76
2022/10/11 06:23:55;;;;;;;5.30;2.10;;;6.20;99.90;;;;;;4933732;28;20138;-77
2022/10/11 06:26:21;;;;;;;9.52;2.55;;;6.20;99.90;;;;;;4948811;28;20051;-76
2022/10/11 06:28:47;;;;;;;10.98;3.10;;;6.30;99.90;;;;;;4938415;28;20119;-76
2022/10/11 06:31:13;;;;;;;11.35;3.40;;;6.30;99.90;;;;;;4946503;28;20391;-77
2022/10/11 06:33:38;;;;;;;8.40;3.30;;;6.30;99.90;;;;;;4926382;28;20120;-74
2022/10/11 06:36:09;;;;;;;14.65;3.92;;;6.30;99.90;;;;;;4929445;28;20787;-77
2022/10/11 06:38:35;;;;;;;11.20;2.85;;;6.40;99.90;;;;;;4918387;29;20039;-76
2022/10/11 06:41:17;;;;;;;8.38;2.83;;;6.40;99.90;;;;;;4946534;28;20536;-75
2022/10/11 06:43:43;;;;;;;11.57;3.53;;;6.50;99.90;;;;;;4936819;28;20123;-75
2022/10/11 06:46:09;;;;;;;16.73;3.58;;;6.50;99.90;;;;;;4930701;28;20051;-76
2022/10/11 06:48:39;;;;;;;11.93;3.70;;;6.50;99.90;;;;;;4922856;28;20055;-77
2022/10/11 06:51:05;;;;;;;12.50;3.60;;;6.60;99.90;;;;;;4938616;28;20055;-76
2022/10/11 06:53:31;;;;;;;16.20;4.30;;;6.60;99.90;;;;;;4931966;29;20397;-76
2022/10/11 06:56:04;;;;;;;11.10;3.30;;;6.60;99.90;;;;;;4930531;28;20055;-77
2022/10/11 06:58:30;;;;;;;13.95;3.78;;;6.60;99.90;;;;;;4939541;28;20517;-76
2022/10/11 07:01:11;;;;;;;12.57;3.67;;;6.70;99.90;;;;;;4928994;28;20051;-76
2022/10/11 07:03:37;;;;;;;12.15;4.10;;;6.70;99.90;;;;;;4924895;28;20031;-76
2022/10/11 07:06:07;;;;;;;13.50;4.53;;;6.80;99.90;;;;;;4924951;28;20059;-76
2022/10/11 07:08:33;;;;;;;13.40;4.18;;;6.80;99.90;;;;;;4931858;28;20051;-73
2022/10/11 07:11:00;;;;;;;8.88;3.22;;;6.80;99.90;;;;;;4919304;28;20039;-76
2022/10/11 07:13:26;;;;;;;17.50;4.47;;;6.90;99.90;;;;;;4920613;28;20836;-76
2022/10/11 07:15:52;;;;;;;14.20;4.15;;;6.90;99.90;;;;;;4927153;28;20131;-76
2022/10/11 07:18:17;;;;;;;14.75;3.75;;;7.00;99.90;;;;;;4931482;28;20051;-76
2022/10/11 07:20:43;;;;;;;13.80;3.83;;;7.00;99.90;;;;;;4930698;28;20065;-76
2022/10/11 07:23:08;;;;;;;8.48;3.72;;;7.00;99.90;;;;;;4923468;28;20051;-76
2022/10/11 07:25:34;;;;;;;18.08;4.05;;;7.00;99.90;;;;;;4912809;28;20102;-76
2022/10/11 07:28:00;;;;;;;16.02;3.65;;;7.10;99.90;;;;;;4947393;28;20049;-77
2022/10/11 07:30:25;;;;;;;16.05;4.30;;;7.10;99.90;;;;;;4915142;28;20057;-76
2022/10/11 07:32:51;;;;;;;14.10;4.15;;;7.10;99.90;;;;;;4932250;28;20086;-75
2022/10/11 07:35:16;;;;;;;17.40;4.30;;;7.20;99.90;;;;;;4927332;28;20032;-75
2022/10/11 07:37:42;;;;;;;17.10;4.80;;;7.20;99.90;;;;;;4930981;28;20035;-76
2022/10/11 07:40:10;;;;;;;18.83;4.50;;;7.20;99.90;;;;;;4929183;28;20047;-76
2022/10/11 07:42:36;;;;;;;14.07;4.40;;;7.30;99.90;;;;;;4925456;28;20051;-77
2022/10/11 07:45:02;;;;;;;19.48;5.07;;;7.30;99.90;;;;;;4923011;28;20039;-75
2022/10/11 07:47:28;;;;;;;18.27;4.85;;;7.30;99.90;;;;;;4921612;28;20126;-76
2022/10/11 07:49:53;;;;;;;15.52;4.70;;;7.40;99.90;;;;;;4920894;28;20130;-76
2022/10/11 07:52:19;;;;;;;19.48;5.45;;;7.40;99.90;;;;;;4927537;28;20055;-76
2022/10/11 07:54:47;;;;;;;15.48;5.00;;;7.50;99.90;;;;;;4924284;28;20425;-76
2022/10/11 07:57:14;;;;;;;15.00;4.25;;;7.50;99.90;;;;;;4921554;28;20053;-76
2022/10/11 07:59:40;;;;;;;17.38;4.90;;;7.50;99.90;;;;;;4923454;28;20043;-76
2022/10/11 08:02:15;;;;;;;17.48;4.90;;;7.60;99.90;;;;;;4921983;28;20065;-74
2022/10/11 08:04:41;;;;;;;25.55;5.20;;;7.70;99.90;;;;;;4916996;28;20039;-76
2022/10/11 08:07:06;;;;;;;19.77;5.55;;;7.70;99.90;;;;;;4912562;28;20405;-76
2022/10/11 08:09:32;;;;;;;18.60;4.95;;;7.80;99.90;;;;;;4924180;28;20521;-76
2022/10/11 08:11:57;;;;;;;18.42;5.63;;;7.90;99.90;;;;;;4928525;28;20379;-76
2022/10/11 08:14:23;;;;;;;12.18;4.70;;;8.00;99.90;;;;;;4943363;28;20047;-76
2022/10/11 08:16:49;;;;;;;19.08;5.32;;;8.10;99.90;;;;;;4928897;28;20047;-76
2022/10/11 08:19:15;;;;;;;23.85;5.13;;;8.20;99.90;;;;;;4909450;29;20071;-76
2022/10/11 08:21:41;;;;;;;18.08;4.97;;;8.20;99.90;;;;;;4911419;28;20047;-74
2022/10/11 08:24:07;;;;;;;19.40;5.47;;;8.30;99.90;;;;;;4926882;28;20051;-76
2022/10/11 08:26:33;;;;;;;27.17;5.40;;;8.40;99.90;;;;;;4921918;29;20053;-76
2022/10/11 08:29:03;;;;;;;19.27;5.25;;;8.50;99.90;;;;;;4922383;28;20181;-76
2022/10/11 08:31:30;;;;;;;20.23;4.70;;;8.50;99.90;;;;;;4922936;28;20055;-76
2022/10/11 08:33:56;;;;;;;21.08;4.80;;;8.60;99.90;;;;;;4919553;28;20542;-77
2022/10/11 08:36:21;;;;;;;21.83;4.72;;;8.60;99.90;;;;;;4921414;28;20126;-76
2022/10/11 08:38:47;;;;;;;15.88;4.50;;;8.80;99.90;;;;;;4909220;28;20513;-75
2022/10/11 08:41:45;;;;;;;22.60;4.63;;;8.90;99.90;;;;;;4920427;28;20051;-76
2022/10/11 08:44:25;;;;;;;15.05;3.97;;;9.00;99.90;;;;;;4912313;28;20044;-74
2022/10/11 08:47:00;;;;;;;18.05;4.22;;;9.10;99.90;;;;;;4925735;28;20050;-74
2022/10/11 08:49:30;;;;;;;16.17;4.28;;;9.20;99.90;;;;;;4935445;28;20082;-76
2022/10/11 08:52:01;;;;;;;27.35;3.97;;;9.30;99.90;;;;;;4936303;28;20040;-76
2022/10/11 08:54:48;;;;;;;16.42;3.92;;;9.50;99.90;;;;;;4922183;28;20093;-76
2022/10/11 08:57:24;;;;;;;29.40;4.38;;;9.60;99.90;;;;;;4925030;28;20172;-76
2022/10/11 09:00:04;;;;;;;17.77;3.53;;;9.70;99.90;;;;;;4912475;28;20043;-76
2022/10/11 09:02:42;;;;;;;18.48;3.58;;;9.80;99.90;;;;;;4917954;28;20040;-76
2022/10/11 09:05:14;;;;;;;15.00;3.33;;;9.90;99.90;;;;;;4928465;28;20063;-76
2022/10/11 09:08:00;;;;;;;18.25;3.20;;;10.00;99.90;;;;;;4918876;28;20063;-76
2022/10/11 09:10:52;;;;;;;16.15;3.80;;;10.10;99.90;;;;;;4921516;28;20054;-76
2022/10/11 09:13:30;;;;;;;18.95;3.78;;;10.20;99.90;;;;;;4912278;28;20043;-76
2022/10/11 09:16:23;;;;;;;15.25;3.08;;;10.40;99.90;;;;;;4926379;29;20089;-76
2022/10/11 09:18:58;;;;;;;14.68;2.75;;;10.50;99.90;;;;;;4929595;29;20046;-76
2022/10/11 09:21:46;;;;;;;13.32;2.60;;;10.60;99.90;;;;;;4926861;28;20039;-76
2022/10/11 09:24:15;;;;;;;13.65;2.97;;;10.80;99.90;;;;;;4947593;28;20371;-74
2022/10/11 09:27:11;;;;;;;16.58;3.45;;;10.90;99.90;;;;;;4924197;29;20043;-76
2022/10/11 09:29:54;;;;;;;16.98;3.00;;;11.00;99.90;;;;;;4941585;28;20102;-76
2022/10/11 09:32:20;;;;;;;14.63;3.15;;;11.00;99.90;;;;;;4913901;29;20040;-75
2022/10/11 09:34:56;;;;;;;14.82;2.45;;;11.10;99.90;;;;;;4926815;28;20051;-73
2022/10/11 09:37:31;;;;;;;17.35;2.85;;;11.20;99.90;;;;;;4927947;28;20050;-76
2022/10/11 09:40:08;;;;;;;11.88;2.75;;;11.30;99.90;;;;;;4926166;28;20050;-76
2022/10/11 09:42:34;;;;;;;13.75;2.65;;;11.40;99.90;;;;;;4923168;28;20527;-75
2022/10/11 09:45:00;;;;;;;13.27;2.75;;;11.50;99.90;;;;;;4917038;28;20047;-75
2022/10/11 09:47:28;;;;;;;13.52;2.88;;;11.60;99.90;;;;;;4926411;28;20113;-73
2022/10/11 09:49:57;;;;;;;15.50;2.85;;;11.70;99.90;;;;;;4930791;28;20102;-75
2022/10/11 09:52:23;;;;;;;16.83;2.92;;;11.80;99.90;;;;;;4927342;28;20121;-76
2022/10/11 09:54:59;;;;;;;12.63;3.03;;;12.00;99.90;;;;;;4924281;28;20047;-75
2022/10/11 09:57:32;;;;;;;16.40;3.15;;;12.00;99.90;;;;;;4945557;28;20146;-75
2022/10/11 10:00:03;;;;;;;17.70;2.95;;;12.10;99.90;;;;;;4929492;28;20043;-76
2022/10/11 10:02:37;;;;;;;13.15;3.20;;;12.20;99.90;;;;;;4928506;28;20040;-75
2022/10/11 10:05:16;;;;;;;11.95;2.80;;;12.30;99.90;;;;;;4925710;28;20047;-76
2022/10/11 10:08:10;;;;;;;13.75;2.80;;;12.40;99.90;;;;;;4934187;28;20053;-76
2022/10/11 10:10:38;;;;;;;11.98;3.10;;;12.60;99.90;;;;;;4943222;28;20415;-75
2022/10/11 10:13:25;;;;;;;17.17;2.78;;;12.60;99.90;;;;;;4927813;28;20051;-74
2022/10/11 10:15:54;;;;;;;13.32;2.80;;;12.70;99.90;;;;;;4928761;28;20047;-75
2022/10/11 10:18:24;;;;;;;15.30;3.22;;;12.80;99.90;;;;;;4911560;28;20561;-76
2022/10/11 10:20:52;;;;;;;16.48;2.70;;;12.90;99.90;;;;;;4922725;28;20056;-75
2022/10/11 10:23:23;;;;;;;17.80;3.30;;;13.00;99.90;;;;;;4929117;28;20063;-76
2022/10/11 10:25:53;;;;;;;18.65;3.05;;;13.10;99.90;;;;;;4929449;28;21790;-74
2022/10/11 10:28:24;;;;;;;12.18;2.90;;;13.20;99.90;;;;;;4925745;28;20394;-76
2022/10/11 10:30:53;;;;;;;13.05;2.70;;;13.40;99.90;;;;;;4921114;28;20088;-76
2022/10/11 10:33:20;;;;;;;15.45;2.97;;;13.40;99.90;;;;;;4920621;28;20158;-76
2022/10/11 10:35:52;;;;;;;14.88;2.72;;;13.50;99.90;;;;;;4919562;28;20053;-76
2022/10/11 10:38:39;;;;;;;19.35;2.90;;;13.70;99.90;;;;;;4929742;28;20415;-74
2022/10/11 10:41:09;;;;;;;14.07;2.78;;;13.80;99.90;;;;;;4948158;28;20134;-76
2022/10/11 10:43:37;;;;;;;12.25;2.47;;;13.90;99.90;;;;;;4922720;28;20039;-74
2022/10/11 10:46:24;;;;;;;14.93;3.08;;;14.10;99.90;;;;;;4922874;28;20541;-76
2022/10/11 10:49:03;;;;;;;17.75;2.70;;;14.10;99.90;;;;;;4929382;28;20043;-75
2022/10/11 10:52:04;;;;;;;14.77;2.70;;;14.20;99.90;;;;;;4937695;28;20380;-76
2022/10/11 10:54:58;;;;;;;16.13;3.35;;;14.30;99.90;;;;;;4929739;28;20048;-75
2022/10/11 10:57:56;;;;;;;16.45;3.63;;;14.40;99.90;;;;;;4946373;28;20143;-75
2022/10/11 11:00:23;;;;;;;20.88;3.25;;;14.60;99.90;;;;;;4918296;28;20122;-76
2022/10/11 11:03:01;;;;;;;12.38;2.60;;;14.80;99.90;;;;;;4923504;28;20047;-75
2022/10/11 11:05:26;;;;;;;18.73;3.17;;;15.00;99.90;;;;;;4945102;28;20102;-76
2022/10/11 11:08:13;;;;;;;13.30;2.33;;;15.20;99.90;;;;;;4927174;28;20043;-76
2022/10/11 11:10:48;;;;;;;14.65;2.55;;;15.50;99.90;;;;;;4927326;28;20131;-76
2022/10/11 11:13:34;;;;;;;13.82;2.75;;;15.70;99.90;;;;;;4929458;28;20494;-76
2022/10/11 11:16:31;;;;;;;14.45;2.38;;;15.80;99.90;;;;;;4946438;28;20051;-76
2022/10/11 11:19:00;;;;;;;12.65;2.95;;;15.90;99.90;;;;;;4945932;28;20426;-77
2022/10/11 11:21:57;;;;;;;13.95;2.67;;;16.10;99.90;;;;;;4928192;28;20056;-77
2022/10/11 11:24:37;;;;;;;10.77;2.08;;;16.10;99.90;;;;;;4925185;28;20048;-77
2022/10/11 11:27:31;;;;;;;14.60;3.10;;;16.40;99.90;;;;;;4930230;28;20054;-77
2022/10/11 11:30:13;;;;;;;13.02;2.28;;;16.60;99.90;;;;;;4941019;28;20446;-77
2022/10/11 11:32:47;;;;;;;12.65;3.17;;;16.60;99.90;;;;;;4932626;28;20129;-77
2022/10/11 11:35:32;;;;;;;11.98;2.30;;;16.70;99.90;;;;;;4930332;28;20176;-77
2022/10/11 11:38:08;;;;;;;15.55;3.17;;;16.60;99.90;;;;;;4914889;28;20052;-77
2022/10/11 11:40:39;;;;;;;15.15;2.55;;;16.40;99.90;;;;;;4923746;28;20093;-77
2022/10/11 11:43:31;;;;;;;15.77;2.30;;;16.50;99.90;;;;;;4926726;28;20105;-77
2022/10/11 11:46:22;;;;;;;12.47;2.53;;;16.80;99.90;;;;;;4954148;28;20036;-77
2022/10/11 11:48:51;;;;;;;12.40;2.75;;;17.00;99.90;;;;;;4930146;28;20032;-77
2022/10/11 11:51:40;;;;;;;11.73;2.70;;;17.20;99.90;;;;;;4921068;28;20050;-77
2022/10/11 11:54:43;;;;;;;14.75;2.88;;;17.40;99.90;;;;;;4922197;28;20067;-77
2022/10/11 11:57:35;;;;;;;11.20;2.50;;;17.70;99.90;;;;;;4925899;28;20040;-77
2022/10/11 12:00:17;;;;;;;14.07;2.53;;;17.90;99.90;;;;;;4925604;28;21064;-76
2022/10/11 12:02:59;;;;;;;14.45;2.33;;;18.10;99.90;;;;;;4949147;28;20062;-78
2022/10/11 12:05:29;;;;;;;11.70;2.95;;;18.10;99.90;;;;;;4920849;28;20098;-76
2022/10/11 12:08:20;;;;;;;12.85;2.60;;;17.90;98.90;;;;;;4912415;28;20156;-77
2022/10/11 12:10:49;;;;;;;16.77;3.22;;;18.00;99.90;;;;;;4933479;28;20047;-77
2022/10/11 12:13:19;;;;;;;13.77;2.83;;;17.70;99.30;;;;;;4923893;28;20054;-77
2022/10/11 12:16:11;;;;;;;13.20;2.65;;;18.00;99.90;;;;;;4929149;28;20046;-77
2022/10/11 12:18:57;;;;;;;9.97;2.60;;;18.00;99.20;;;;;;4921439;28;20055;-76
2022/10/11 12:21:36;;;;;;;10.32;2.40;;;18.10;98.60;;;;;;4923216;28;20051;-76
2022/10/11 12:24:05;;;;;;;10.77;2.58;;;18.10;99.70;;;;;;4922632;28;20039;-77
2022/10/11 12:26:47;;;;;;;12.88;2.95;;;18.10;98.80;;;;;;4910836;29;20405;-77
2022/10/11 12:29:17;;;;;;;9.05;2.00;;;18.30;99.70;;;;;;4928274;29;20054;-76
2022/10/11 12:31:47;;;;;;;10.15;2.58;;;18.50;99.80;;;;;;4930926;28;20564;-77
2022/10/11 12:34:36;;;;;;;9.93;2.40;;;18.70;98.10;;;;;;4940900;28;20035;-77
2022/10/11 12:37:28;;;;;;;13.73;2.33;;;18.80;98.20;;;;;;4928905;29;20047;-77
2022/10/11 12:39:59;;;;;;;13.43;2.67;;;19.00;98.90;;;;;;4940941;28;20047;-76
2022/10/11 12:42:27;;;;;;;9.27;2.45;;;19.40;99.00;;;;;;4922310;28;20052;-77
2022/10/11 12:45:11;;;;;;;9.88;2.50;;;19.60;98.50;;;;;;4927796;28;20043;-77
2022/10/11 12:48:24;;;;;;;10.07;2.38;;;19.80;95.70;;;;;;4928167;28;20050;-76
2022/10/11 12:51:20;;;;;;;10.57;2.20;;;20.20;95.50;;;;;;4910000;28;20062;-77
2022/10/11 12:53:52;;;;;;;11.38;2.40;;;20.00;88.60;;;;;;4925147;28;20047;-77
2022/10/11 12:56:40;;;;;;;8.60;2.38;;;19.90;89.30;;;;;;4927394;28;20055;-77
2022/10/11 12:59:13;;;;;;;10.23;2.42;;;19.70;90.10;;;;;;4913815;28;20039;-77
2022/10/11 13:01:52;;;;;;;9.77;2.25;;;19.30;87.20;;;;;;4919640;28;20047;-77
2022/10/11 13:04:24;;;;;;;12.40;2.50;;;19.40;89.10;;;;;;4926570;28;20281;-77
2022/10/11 13:06:55;;;;;;;;;;;19.60;90.70;;;;;;4920976;28;20054;-76
2022/10/11 13:09:32;;;;;;;10.15;2.22;;;19.40;88.90;;;;;;4914520;28;19928;-77